Main page
METAR-TAF:

METAR-TAF

Airports :

Cairo International Airport

Cairo, Egypt

latitude: 30-08N, longitude: 031-24E, elevation: 64 m

Current weather observation

The report was made 18 minutes ago, at 22:00 UTC
Wind 12 kt from the North
Temperature 22°C
Humidity 65%
Pressure 1016 hPa
Visibility 10 km or more
no clouds below 1500 m and no cumulonimbus

METAR: HECA 162200Z 36012KT CAVOK 22/15 Q1016 NOSIG

Time: 00:18 (22:18 UTC)

Forecast

The report was made 5 hours and 18 minutes ago, at 17:00 UTC
Forecast valid from 16 at 18 UTC to 17 at 24 UTC
Wind 12 kt from the Northwest
Visibility 10 km or more
no clouds below 1500 m and no cumulonimbus
Becoming
from 16 at 21 UTC to 16 at 23 UTC
Wind 8 kt from the North/Northeast
Temporary
from 17 at 00 UTC to 17 at 06 UTC
Wind 3 kt from variable directions
mist

TAF: HECA 161700Z 1618/1724 32012KT CAVOK BECMG 1621/1623 02008KT TEMPO 1700/1706 VRB03KT VIS4000M BR NSC

Weather observations and forecasts of more than 4000 airports (METAR and TAF reports).

The available stations are represented by yellow and red dots on the map.

Hover mouse over dot to see the name of the station.

Then click to see weather observations and forecasts.

To change the map : click on the green buttons with a black cross to zoom in, on the green button with a dash to zoom out, or on the green arrows for adjacent maps.


METAR-TAF: